createdAt,value
2018-07-17T00:00:25.599Z,62.80
2018-07-17T00:02:53.713Z,63.00
2018-07-17T00:05:21.841Z,63.20
2018-07-17T00:07:50.014Z,63.20
2018-07-17T00:10:18.137Z,63.20
2018-07-17T00:12:46.312Z,63.20
2018-07-17T00:15:14.404Z,63.20
2018-07-17T00:17:42.521Z,63.20
2018-07-17T00:20:10.670Z,63.30
2018-07-17T00:22:38.790Z,63.30
2018-07-17T00:25:06.917Z,63.40
2018-07-17T00:27:35.028Z,63.50
2018-07-17T00:32:37.402Z,63.80
2018-07-17T00:35:05.529Z,63.90
2018-07-17T00:37:33.650Z,64.00
2018-07-17T00:40:02.773Z,64.10
2018-07-17T00:42:30.954Z,64.30
2018-07-17T00:44:59.076Z,64.50
2018-07-17T00:47:27.204Z,64.60
2018-07-17T00:49:55.328Z,64.70
2018-07-17T00:52:23.453Z,64.70
2018-07-17T00:54:52.504Z,64.60
2018-07-17T00:57:20.623Z,65.40
2018-07-17T00:59:48.753Z,64.80
2018-07-17T01:02:22.268Z,65.10
2018-07-17T01:04:55.648Z,65.30
2018-07-17T01:07:29.195Z,65.50
2018-07-17T01:10:02.729Z,65.80
2018-07-17T01:12:30.176Z,66.10
2018-07-17T01:15:05.223Z,66.30
2018-07-17T01:17:34.546Z,66.60
2018-07-17T01:20:02.667Z,66.80
2018-07-17T01:22:30.782Z,67.10
2018-07-17T01:24:58.973Z,67.20
2018-07-17T01:27:27.100Z,67.40
2018-07-17T01:29:55.227Z,67.70
2018-07-17T01:32:23.845Z,67.80
2018-07-17T01:37:19.845Z,68.00
2018-07-17T01:39:50.988Z,68.00
2018-07-17T01:42:19.110Z,67.90
2018-07-17T01:44:47.239Z,67.80
2018-07-17T01:47:15.360Z,67.90
2018-07-17T01:49:43.761Z,68.10
2018-07-17T01:52:11.951Z,68.40
2018-07-17T01:54:40.517Z,68.70
2018-07-17T01:57:09.098Z,68.90
2018-07-17T01:59:37.245Z,69.20
2018-07-17T02:02:05.412Z,69.40
2018-07-17T02:04:33.526Z,69.50
2018-07-17T02:07:01.675Z,69.60
2018-07-17T02:09:30.825Z,69.60
2018-07-17T02:11:58.948Z,69.90
2018-07-17T02:14:27.077Z,70.00
2018-07-17T02:16:55.709Z,70.10
2018-07-17T02:19:23.838Z,70.10
2018-07-17T02:21:51.987Z,70.10
2018-07-17T02:24:20.117Z,70.80
2018-07-17T02:26:48.235Z,70.10
2018-07-17T02:29:16.354Z,70.20
2018-07-17T02:31:44.502Z,70.50
2018-07-17T02:34:12.666Z,70.70
2018-07-17T02:36:40.809Z,70.90
2018-07-17T02:39:09.931Z,71.10
2018-07-17T02:41:38.102Z,71.30
2018-07-17T02:44:06.268Z,71.40
2018-07-17T02:46:34.436Z,71.50
2018-07-17T02:49:02.562Z,71.70
2018-07-17T02:51:30.693Z,71.80
2018-07-17T02:53:58.834Z,71.90
2018-07-17T02:56:26.986Z,72.20
2018-07-17T02:58:55.663Z,72.30
2018-07-17T03:01:23.964Z,72.40
2018-07-17T03:03:52.113Z,72.40
2018-07-17T03:06:20.236Z,72.50
2018-07-17T03:08:48.381Z,72.50
2018-07-17T03:11:16.510Z,72.60
2018-07-17T03:13:45.162Z,72.80
2018-07-17T03:16:13.310Z,72.90
2018-07-17T03:18:41.444Z,73.20
2018-07-17T03:21:09.822Z,73.30
2018-07-17T03:23:38.485Z,73.50
2018-07-17T03:26:06.617Z,73.70
2018-07-17T03:28:34.730Z,73.90
2018-07-17T03:31:02.877Z,74.00
2018-07-17T03:33:31.046Z,74.00
2018-07-17T03:35:59.159Z,74.00
2018-07-17T03:38:27.281Z,74.10
2018-07-17T03:40:55.397Z,74.10
2018-07-17T03:43:23.521Z,74.20
2018-07-17T03:45:51.688Z,74.20
2018-07-17T03:48:19.805Z,74.20
2018-07-17T03:50:47.926Z,74.20
2018-07-17T03:53:16.070Z,74.10
2018-07-17T03:55:44.195Z,74.10
2018-07-17T03:58:12.370Z,74.10
2018-07-17T04:00:40.586Z,74.20
2018-07-17T04:03:08.706Z,74.30
2018-07-17T04:05:36.832Z,74.50
2018-07-17T04:08:05.344Z,74.60
2018-07-17T04:10:33.466Z,74.80
2018-07-17T04:13:01.607Z,74.80
2018-07-17T04:15:30.459Z,74.90
2018-07-17T04:17:58.586Z,75.00
2018-07-17T04:20:26.702Z,75.10
2018-07-17T04:22:54.841Z,75.20
2018-07-17T04:25:22.977Z,75.20
2018-07-17T04:27:51.089Z,75.30
2018-07-17T04:30:19.753Z,75.40
2018-07-17T04:32:47.876Z,75.40
2018-07-17T04:35:15.998Z,75.50
2018-07-17T04:37:44.121Z,75.50
2018-07-17T04:40:12.245Z,75.50
2018-07-17T04:42:40.381Z,75.50
2018-07-17T04:45:08.548Z,75.60
2018-07-17T04:47:36.656Z,75.60
2018-07-17T04:50:04.795Z,75.60
2018-07-17T04:52:34.261Z,75.50
2018-07-17T04:55:02.413Z,75.50
2018-07-17T04:57:30.561Z,75.50
2018-07-17T04:59:58.721Z,75.60
2018-07-17T05:02:27.986Z,75.70
2018-07-17T05:04:56.132Z,75.70
2018-07-17T05:07:24.241Z,75.60
2018-07-17T05:09:52.367Z,75.60
2018-07-17T05:12:20.992Z,75.70
2018-07-17T05:14:49.113Z,75.70
2018-07-17T05:17:17.249Z,75.70
2018-07-17T05:19:45.392Z,75.60
2018-07-17T05:22:13.524Z,75.40
2018-07-17T05:24:41.629Z,75.30
2018-07-17T05:27:09.781Z,75.10
2018-07-17T05:29:37.897Z,74.90
2018-07-17T05:32:06.061Z,74.60
2018-07-17T05:34:34.224Z,74.40
2018-07-17T05:37:02.358Z,74.20
2018-07-17T05:39:30.487Z,74.00
2018-07-17T05:41:58.630Z,73.90
2018-07-17T05:44:26.771Z,74.00
2018-07-17T05:46:54.896Z,73.90
2018-07-17T05:49:23.033Z,74.00
2018-07-17T05:51:51.158Z,74.00
2018-07-17T05:54:19.276Z,73.80
2018-07-17T05:56:48.293Z,73.80
2018-07-17T05:59:16.398Z,73.60
2018-07-17T06:01:44.529Z,73.40
2018-07-17T06:04:13.566Z,73.10
2018-07-17T06:06:41.695Z,73.10
2018-07-17T06:09:10.704Z,73.00
2018-07-17T06:11:38.833Z,72.80
2018-07-17T06:14:06.964Z,72.70
2018-07-17T06:16:35.157Z,72.70
2018-07-17T06:19:04.069Z,72.70
2018-07-17T06:21:32.195Z,72.70
2018-07-17T06:24:00.847Z,72.70
2018-07-17T06:26:29.784Z,72.50
2018-07-17T06:28:57.915Z,72.40
2018-07-17T06:31:26.092Z,72.10
2018-07-17T06:33:54.568Z,71.60
2018-07-17T06:36:22.693Z,71.20
2018-07-17T06:38:50.886Z,71.10
2018-07-17T06:41:19.469Z,71.10
2018-07-17T06:43:47.589Z,71.10
2018-07-17T06:46:15.708Z,70.80
2018-07-17T06:48:43.830Z,70.70
2018-07-17T06:51:11.968Z,70.60
2018-07-17T06:53:40.120Z,70.30
2018-07-17T06:56:08.257Z,69.90
2018-07-17T06:58:36.377Z,69.90
2018-07-17T07:01:04.532Z,70.00
2018-07-17T07:03:33.022Z,70.00
2018-07-17T07:06:02.474Z,70.10
2018-07-17T07:08:30.585Z,69.90
2018-07-17T07:10:58.813Z,69.40
2018-07-17T07:13:26.937Z,69.00
2018-07-17T07:15:55.057Z,68.90
2018-07-17T07:18:23.200Z,69.40
2018-07-17T07:20:51.338Z,68.50
2018-07-17T07:23:19.492Z,68.40
2018-07-17T07:25:48.115Z,68.10
2018-07-17T07:28:16.240Z,67.70
2018-07-17T07:30:44.376Z,67.20
2018-07-17T07:33:12.562Z,66.80
2018-07-17T07:35:40.690Z,66.60
2018-07-17T07:38:08.825Z,66.30
2018-07-17T07:40:36.954Z,65.90
2018-07-17T07:43:05.123Z,65.90
2018-07-17T07:45:33.242Z,65.60
2018-07-17T07:48:01.864Z,65.20
2018-07-17T07:50:29.988Z,65.00
2018-07-17T07:52:58.103Z,64.90
2018-07-17T07:55:27.559Z,64.60
2018-07-17T07:57:55.708Z,64.20
2018-07-17T08:00:23.825Z,63.80
2018-07-17T08:02:52.003Z,63.60
2018-07-17T08:05:20.140Z,62.80
2018-07-17T08:07:48.340Z,61.80
2018-07-17T08:10:16.858Z,60.90
2018-07-17T08:12:44.997Z,60.10
2018-07-17T08:15:13.113Z,59.50
2018-07-17T08:17:41.386Z,59.10
2018-07-17T08:20:09.642Z,58.50
2018-07-17T08:22:37.767Z,58.00
2018-07-17T08:25:05.904Z,57.90
2018-07-17T08:27:34.023Z,57.60
2018-07-17T08:30:02.150Z,57.30
2018-07-17T08:32:31.137Z,57.20
2018-07-17T08:34:59.271Z,57.10
2018-07-17T08:37:27.384Z,56.70
2018-07-17T08:39:55.861Z,56.10
2018-07-17T08:42:23.976Z,55.60
2018-07-17T08:44:52.096Z,55.20
2018-07-17T08:47:20.230Z,54.80
2018-07-17T08:49:48.377Z,54.70
2018-07-17T08:52:16.502Z,54.50
2018-07-17T08:54:45.201Z,54.40
2018-07-17T08:57:13.276Z,54.30
2018-07-17T08:59:41.381Z,53.90
2018-07-17T09:02:09.517Z,53.70
2018-07-17T09:04:37.642Z,53.50
2018-07-17T09:07:06.108Z,53.40
2018-07-17T09:09:34.394Z,53.00
2018-07-17T09:12:02.522Z,52.80
2018-07-17T09:14:30.643Z,52.80
2018-07-17T09:16:59.497Z,52.50
2018-07-17T09:19:27.616Z,52.00
2018-07-17T09:21:55.726Z,51.70
2018-07-17T09:24:23.853Z,51.50
2018-07-17T09:26:52.974Z,51.30
2018-07-17T09:29:21.100Z,50.90
2018-07-17T09:31:49.233Z,50.40
2018-07-17T09:34:17.356Z,50.30
2018-07-17T09:36:45.479Z,50.00
2018-07-17T09:39:14.201Z,49.80
2018-07-17T09:41:42.332Z,49.50
2018-07-17T09:44:10.448Z,49.30
2018-07-17T09:46:38.591Z,48.80
2018-07-17T09:49:06.716Z,48.30
2018-07-17T09:51:35.568Z,48.20
2018-07-17T09:54:03.738Z,48.00
2018-07-17T09:56:32.654Z,47.40
2018-07-17T09:59:00.786Z,47.00
2018-07-17T10:01:34.665Z,46.50
2018-07-17T10:04:02.816Z,45.40
2018-07-17T10:06:30.938Z,44.50
2018-07-17T10:08:59.081Z,43.40
2018-07-17T10:11:27.289Z,42.80
2018-07-17T10:13:55.409Z,42.10
2018-07-17T10:16:24.542Z,41.80
2018-07-17T10:18:53.684Z,41.30
2018-07-17T10:21:21.810Z,40.90
2018-07-17T10:23:49.928Z,40.70
2018-07-17T10:26:18.068Z,40.60
2018-07-17T10:28:46.213Z,40.30
2018-07-17T10:31:14.335Z,39.70
2018-07-17T10:33:42.482Z,39.40
2018-07-17T10:36:10.613Z,39.00
2018-07-17T10:38:38.771Z,37.70
2018-07-17T10:41:06.883Z,36.50
2018-07-17T10:43:35.085Z,35.60
2018-07-17T10:46:03.435Z,35.00
2018-07-17T10:48:31.569Z,35.10
2018-07-17T10:50:59.709Z,36.00
2018-07-17T10:53:27.840Z,36.50
2018-07-17T10:55:55.970Z,36.60
2018-07-17T10:58:24.116Z,36.00
2018-07-17T11:00:52.296Z,35.10
2018-07-17T11:03:20.394Z,34.70
2018-07-17T11:05:48.601Z,34.30
2018-07-17T11:10:44.617Z,31.70
2018-07-17T11:15:41.320Z,31.10
2018-07-17T11:20:37.341Z,31.40
2018-07-17T11:23:05.494Z,31.60
2018-07-17T11:25:33.747Z,31.50
2018-07-17T11:30:35.902Z,32.20
2018-07-17T11:33:04.033Z,32.90
2018-07-17T11:35:32.278Z,33.40
2018-07-17T11:38:00.416Z,33.20
2018-07-17T11:40:28.552Z,33.20
2018-07-17T11:42:56.671Z,33.60
2018-07-17T11:45:24.892Z,34.10
2018-07-17T11:47:53.063Z,34.00
2018-07-17T11:50:21.133Z,33.60
2018-07-17T11:52:49.750Z,33.20
2018-07-17T11:57:45.757Z,30.70
2018-07-17T12:00:13.906Z,30.50
2018-07-17T12:05:09.921Z,30.00
2018-07-17T12:07:38.064Z,31.40
2018-07-17T12:10:07.194Z,32.20
2018-07-17T12:12:35.377Z,32.50
2018-07-17T12:15:04.081Z,33.10
2018-07-17T12:17:32.256Z,33.10
2018-07-17T12:20:00.465Z,32.50
2018-07-17T12:22:28.500Z,33.00
2018-07-17T12:24:56.616Z,33.40
2018-07-17T12:27:24.735Z,33.70
2018-07-17T12:29:54.475Z,34.20
2018-07-17T12:32:22.585Z,34.60
2018-07-17T12:34:50.707Z,35.10
2018-07-17T12:37:19.324Z,35.20
2018-07-17T12:39:47.458Z,35.30
2018-07-17T12:42:15.665Z,35.40
2018-07-17T12:44:43.800Z,35.70
2018-07-17T12:47:11.944Z,36.00
2018-07-17T12:49:40.067Z,35.90
2018-07-17T12:52:08.234Z,35.60
2018-07-17T12:54:36.354Z,35.50
2018-07-17T12:57:04.522Z,35.30
2018-07-17T12:59:33.679Z,35.20
2018-07-17T13:02:01.818Z,35.10
2018-07-17T13:04:29.937Z,34.80
2018-07-17T13:07:01.901Z,34.70
2018-07-17T13:09:30.058Z,34.30
2018-07-17T13:11:59.185Z,34.10
2018-07-17T13:14:27.330Z,34.00
2018-07-17T13:16:56.348Z,33.80
2018-07-17T13:19:24.478Z,33.20
2018-07-17T13:21:53.266Z,32.80
2018-07-17T13:24:21.433Z,32.10
2018-07-17T13:26:49.575Z,32.60
2018-07-17T13:29:17.719Z,33.10
2018-07-17T13:31:45.845Z,32.30
2018-07-17T13:34:16.009Z,32.00
2018-07-17T13:36:44.138Z,32.60
2018-07-17T13:39:12.994Z,32.90
2018-07-17T13:41:41.933Z,32.90
2018-07-17T13:44:10.057Z,32.80
2018-07-17T13:46:39.174Z,32.80
2018-07-17T13:49:07.338Z,32.60
2018-07-17T13:51:36.256Z,32.70
2018-07-17T13:54:04.412Z,32.90
2018-07-17T13:56:32.557Z,33.10
2018-07-17T13:59:00.669Z,32.00
2018-07-17T14:01:28.810Z,32.50
2018-07-17T14:03:56.961Z,32.40
2018-07-17T14:06:25.080Z,32.10
2018-07-17T14:08:53.206Z,31.80
2018-07-17T14:11:21.341Z,31.10
2018-07-17T14:13:49.466Z,31.70
2018-07-17T14:16:17.581Z,31.70
2018-07-17T14:18:56.661Z,30.60
2018-07-17T14:21:24.781Z,30.10
2018-07-17T14:23:52.915Z,29.90
2018-07-17T14:26:21.131Z,30.00
2018-07-17T14:28:49.236Z,30.00
2018-07-17T14:31:17.364Z,29.90
2018-07-17T14:33:46.301Z,30.00
2018-07-17T14:36:14.434Z,30.40
2018-07-17T14:38:42.545Z,30.00
2018-07-17T14:41:11.032Z,30.40
2018-07-17T14:43:39.159Z,30.30
2018-07-17T14:46:07.284Z,30.30
2018-07-17T14:48:38.181Z,29.80
2018-07-17T14:51:08.313Z,30.20
2018-07-17T14:53:36.866Z,30.30
2018-07-17T14:56:05.052Z,30.30
2018-07-17T14:58:33.172Z,30.70
2018-07-17T15:01:01.446Z,31.20
2018-07-17T15:03:29.565Z,31.50
2018-07-17T15:05:57.691Z,31.60
2018-07-17T15:08:26.370Z,31.70
2018-07-17T15:10:54.483Z,31.60
2018-07-17T15:13:22.619Z,31.70
2018-07-17T15:15:50.848Z,31.70
2018-07-17T15:18:18.890Z,31.70
2018-07-17T15:20:47.553Z,31.70
2018-07-17T15:23:15.785Z,31.60
2018-07-17T15:25:44.037Z,31.50
2018-07-17T15:28:12.228Z,31.60
2018-07-17T15:30:40.301Z,31.50
2018-07-17T15:33:09.867Z,31.50
2018-07-17T15:35:38.006Z,31.60
2018-07-17T15:38:06.125Z,31.90
2018-07-17T15:40:34.260Z,32.60
2018-07-17T15:43:02.399Z,33.40
2018-07-17T15:45:30.580Z,34.20
2018-07-17T15:47:58.655Z,34.90
2018-07-17T15:50:27.307Z,35.50
2018-07-17T15:52:55.432Z,36.00
2018-07-17T15:55:23.545Z,36.20
2018-07-17T15:57:51.743Z,36.20
2018-07-17T16:00:19.898Z,36.40
2018-07-17T16:02:48.037Z,36.50
2018-07-17T16:05:16.171Z,36.70
2018-07-17T16:07:44.304Z,37.00
2018-07-17T16:10:12.420Z,37.20
2018-07-17T16:12:40.654Z,37.50
2018-07-17T16:15:08.850Z,37.70
2018-07-17T16:17:37.004Z,38.50
2018-07-17T16:20:05.461Z,38.10
2018-07-17T16:22:34.454Z,38.10
2018-07-17T16:25:02.589Z,38.10
2018-07-17T16:27:30.777Z,38.10
2018-07-17T16:29:58.914Z,38.00
2018-07-17T16:32:27.067Z,38.00
2018-07-17T16:34:55.277Z,38.00
2018-07-17T16:37:23.409Z,38.00
2018-07-17T16:39:51.550Z,38.00
2018-07-17T16:42:19.732Z,38.10
2018-07-17T16:44:47.796Z,38.10
2018-07-17T16:47:15.906Z,38.30
2018-07-17T16:49:44.143Z,38.40
2018-07-17T16:52:12.165Z,38.40
2018-07-17T16:54:40.288Z,38.40
2018-07-17T16:57:08.520Z,38.50
2018-07-17T16:59:36.633Z,38.40
2018-07-17T17:02:04.769Z,38.30
2018-07-17T17:04:33.613Z,38.20
2018-07-17T17:07:01.774Z,38.10
2018-07-17T17:09:29.883Z,38.00
2018-07-17T17:11:58.021Z,37.80
2018-07-17T17:14:26.151Z,37.70
2018-07-17T17:16:54.272Z,37.60
2018-07-17T17:19:22.905Z,37.40
2018-07-17T17:21:51.060Z,37.20
2018-07-17T17:24:19.908Z,37.10
2018-07-17T17:26:47.932Z,37.00
2018-07-17T17:29:16.081Z,36.90
2018-07-17T17:31:44.187Z,36.80
2018-07-17T17:34:12.321Z,36.80
2018-07-17T17:36:40.460Z,36.70
2018-07-17T17:39:09.762Z,36.40
2018-07-17T17:41:38.647Z,36.30
2018-07-17T17:44:07.492Z,36.20
2018-07-17T17:46:35.749Z,36.10
2018-07-17T17:49:03.870Z,36.00
2018-07-17T17:51:32.731Z,36.00
2018-07-17T17:54:00.985Z,36.00
2018-07-17T17:56:29.128Z,35.90
2018-07-17T17:58:57.266Z,35.80
2018-07-17T18:01:25.401Z,35.70
2018-07-17T18:03:53.587Z,35.60
2018-07-17T18:06:21.735Z,35.50
2018-07-17T18:08:49.923Z,35.40
2018-07-17T18:11:18.043Z,35.20
2018-07-17T18:13:46.171Z,35.10
2018-07-17T18:16:14.304Z,35.10
2018-07-17T18:18:42.418Z,35.20
2018-07-17T18:21:10.529Z,35.30
2018-07-17T18:23:39.362Z,35.50
2018-07-17T18:26:08.356Z,35.70
2018-07-17T18:28:36.483Z,35.90
2018-07-17T18:31:04.629Z,36.00
2018-07-17T18:33:32.772Z,36.10
2018-07-17T18:36:01.561Z,36.30
2018-07-17T18:38:29.717Z,36.80
2018-07-17T18:40:57.842Z,37.20
2018-07-17T18:43:26.525Z,37.40
2018-07-17T18:45:54.692Z,37.70
2018-07-17T18:48:22.815Z,38.00
2018-07-17T18:50:50.929Z,38.20
2018-07-17T18:53:19.087Z,38.40
2018-07-17T18:55:47.211Z,38.80
2018-07-17T18:58:15.324Z,39.00
2018-07-17T19:00:43.546Z,39.10
2018-07-17T19:03:11.679Z,39.20
2018-07-17T19:05:39.831Z,39.20
2018-07-17T19:08:08.306Z,39.40
2018-07-17T19:10:36.440Z,39.40
2018-07-17T19:13:04.564Z,39.50
2018-07-17T19:15:32.698Z,39.70
2018-07-17T19:18:00.829Z,39.80
2018-07-17T19:20:28.950Z,40.00
2018-07-17T19:22:57.200Z,40.70
2018-07-17T19:25:26.312Z,40.20
2018-07-17T19:27:55.302Z,40.30
2018-07-17T19:30:23.443Z,40.40
2018-07-17T19:32:51.564Z,40.50
2018-07-17T19:37:47.608Z,40.40
2018-07-17T19:40:15.726Z,41.10
2018-07-17T19:42:43.862Z,41.20
2018-07-17T19:45:11.986Z,41.30
2018-07-17T19:47:40.136Z,41.60
2018-07-17T19:50:09.119Z,41.90
2018-07-17T19:52:37.339Z,42.20
2018-07-17T19:55:05.833Z,42.50
2018-07-17T19:57:34.022Z,42.80
2018-07-17T20:00:02.150Z,43.10
2018-07-17T20:02:30.272Z,43.50
2018-07-17T20:04:58.405Z,44.00
2018-07-17T20:07:26.908Z,44.60
2018-07-17T20:09:55.108Z,44.80
2018-07-17T20:12:23.266Z,45.40
2018-07-17T20:14:51.422Z,45.70
2018-07-17T20:17:19.572Z,46.00
2018-07-17T20:19:47.846Z,46.20
2018-07-17T20:22:15.974Z,46.40
2018-07-17T20:24:44.121Z,46.60
2018-07-17T20:27:12.419Z,46.80
2018-07-17T20:29:42.006Z,46.80
2018-07-17T20:32:10.470Z,46.90
2018-07-17T20:34:38.629Z,47.00
2018-07-17T20:37:06.892Z,47.00
2018-07-17T20:39:35.042Z,47.00
2018-07-17T20:42:03.183Z,47.00
2018-07-17T20:44:31.380Z,47.10
2018-07-17T20:46:59.515Z,47.20
2018-07-17T20:49:27.628Z,46.70
2018-07-17T20:51:55.828Z,47.30
2018-07-17T20:54:23.992Z,47.30
2018-07-17T20:56:52.213Z,47.40
2018-07-17T20:59:20.368Z,47.30
2018-07-17T21:01:49.513Z,47.30
2018-07-17T21:04:17.653Z,47.20
2018-07-17T21:06:45.823Z,47.20
2018-07-17T21:09:13.976Z,47.20
2018-07-17T21:11:42.104Z,46.70
2018-07-17T21:14:10.325Z,47.40
2018-07-17T21:16:38.487Z,47.40
2018-07-17T21:19:06.621Z,47.40
2018-07-17T21:24:02.717Z,47.50
2018-07-17T21:26:30.897Z,47.60
2018-07-17T21:28:59.045Z,47.70
2018-07-17T21:31:27.305Z,47.50
2018-07-17T21:33:55.425Z,48.40
2018-07-17T21:36:23.972Z,48.70
2018-07-17T21:38:52.308Z,49.10
2018-07-17T21:41:20.464Z,50.00
2018-07-17T21:43:48.621Z,49.50
2018-07-17T21:46:16.874Z,49.60
2018-07-17T21:48:49.384Z,49.70
2018-07-17T21:51:17.531Z,49.10
2018-07-17T21:53:45.711Z,49.60
2018-07-17T21:56:13.918Z,49.60
2018-07-17T21:58:42.068Z,49.60
2018-07-17T22:01:10.220Z,49.50
2018-07-17T22:03:38.347Z,49.40
2018-07-17T22:06:06.471Z,49.40
2018-07-17T22:08:34.601Z,49.30
2018-07-17T22:11:02.760Z,49.20
2018-07-17T22:13:30.896Z,49.00
2018-07-17T22:15:59.047Z,48.90
2018-07-17T22:18:27.246Z,48.90
2018-07-17T22:20:55.381Z,48.80
2018-07-17T22:23:23.505Z,48.80
2018-07-17T22:25:51.660Z,48.70
2018-07-17T22:28:19.793Z,48.70
2018-07-17T22:30:47.930Z,48.70
2018-07-17T22:33:16.533Z,48.70
2018-07-17T22:35:44.741Z,48.90
2018-07-17T22:38:12.870Z,49.00
2018-07-17T22:40:41.040Z,49.00
2018-07-17T22:43:09.171Z,49.10
2018-07-17T22:45:37.375Z,49.10
2018-07-17T22:48:05.530Z,49.10
2018-07-17T22:50:33.717Z,49.30
2018-07-17T22:53:01.858Z,49.60
2018-07-17T22:55:30.004Z,49.80
2018-07-17T22:57:58.156Z,50.00
2018-07-17T23:00:26.270Z,50.10
2018-07-17T23:02:54.491Z,50.10
2018-07-17T23:05:22.630Z,50.20
2018-07-17T23:07:50.800Z,50.30
2018-07-17T23:10:19.603Z,50.40
2018-07-17T23:12:47.734Z,50.40
2018-07-17T23:15:16.917Z,50.60
2018-07-17T23:17:45.061Z,50.50
2018-07-17T23:20:13.175Z,50.60
2018-07-17T23:22:55.533Z,50.70
2018-07-17T23:25:24.687Z,50.90
2018-07-17T23:27:52.999Z,50.80
2018-07-17T23:30:21.149Z,50.90
2018-07-17T23:32:50.393Z,50.80
2018-07-17T23:35:20.598Z,50.80
2018-07-17T23:37:48.872Z,50.80
2018-07-17T23:40:17.005Z,50.80
2018-07-17T23:42:45.229Z,50.70
2018-07-17T23:45:14.070Z,50.70
2018-07-17T23:47:42.199Z,50.70
2018-07-17T23:50:10.344Z,50.80
2018-07-17T23:52:38.464Z,50.90
2018-07-17T23:55:06.625Z,51.10
2018-07-17T23:57:34.793Z,51.50
